sensor_id;sensor_type;location;lat;lon;timestamp;P1;durP1;ratioP1;P2;durP2;ratioP2
23988;SDS011;12202;52.136;5.592;2022-07-23T00:00:15;14.55;;;6.60;;
23988;SDS011;12202;52.136;5.592;2022-07-23T00:02:41;10.52;;;6.72;;
23988;SDS011;12202;52.136;5.592;2022-07-23T00:05:07;13.00;;;6.15;;
23988;SDS011;12202;52.136;5.592;2022-07-23T00:07:33;9.20;;;5.95;;
23988;SDS011;12202;52.136;5.592;2022-07-23T00:09:59;11.23;;;5.95;;
23988;SDS011;12202;52.136;5.592;2022-07-23T00:12:25;9.82;;;5.97;;
23988;SDS011;12202;52.136;5.592;2022-07-23T00:14:51;11.98;;;6.38;;
23988;SDS011;12202;52.136;5.592;2022-07-23T00:17:17;8.05;;;5.63;;
23988;SDS011;12202;52.136;5.592;2022-07-23T00:19:43;21.58;;;11.77;;
23988;SDS011;12202;52.136;5.592;2022-07-23T00:22:09;26.65;;;13.75;;
23988;SDS011;12202;52.136;5.592;2022-07-23T00:24:35;18.17;;;12.13;;
23988;SDS011;12202;52.136;5.592;2022-07-23T00:27:01;15.02;;;7.78;;
23988;SDS011;12202;52.136;5.592;2022-07-23T00:29:27;12.30;;;6.28;;
23988;SDS011;12202;52.136;5.592;2022-07-23T00:31:53;10.73;;;6.63;;
23988;SDS011;12202;52.136;5.592;2022-07-23T00:34:19;8.40;;;5.90;;
23988;SDS011;12202;52.136;5.592;2022-07-23T00:36:45;9.85;;;6.28;;
23988;SDS011;12202;52.136;5.592;2022-07-23T00:39:11;8.57;;;6.32;;
23988;SDS011;12202;52.136;5.592;2022-07-23T00:41:37;9.18;;;6.13;;
23988;SDS011;12202;52.136;5.592;2022-07-23T00:46:48;10.23;;;6.65;;
23988;SDS011;12202;52.136;5.592;2022-07-23T00:49:15;13.02;;;6.03;;
23988;SDS011;12202;52.136;5.592;2022-07-23T00:51:41;10.90;;;5.97;;
23988;SDS011;12202;52.136;5.592;2022-07-23T00:54:07;7.13;;;6.03;;
23988;SDS011;12202;52.136;5.592;2022-07-23T00:56:33;9.93;;;6.88;;
23988;SDS011;12202;52.136;5.592;2022-07-23T00:59:00;9.13;;;6.57;;
23988;SDS011;12202;52.136;5.592;2022-07-23T01:01:26;12.13;;;6.35;;
23988;SDS011;12202;52.136;5.592;2022-07-23T01:03:52;12.32;;;5.80;;
23988;SDS011;12202;52.136;5.592;2022-07-23T01:06:18;13.00;;;6.85;;
23988;SDS011;12202;52.136;5.592;2022-07-23T01:08:44;13.68;;;6.72;;
23988;SDS011;12202;52.136;5.592;2022-07-23T01:11:10;12.20;;;5.65;;
23988;SDS011;12202;52.136;5.592;2022-07-23T01:13:40;10.23;;;6.35;;
23988;SDS011;12202;52.136;5.592;2022-07-23T01:16:06;9.57;;;6.05;;
23988;SDS011;12202;52.136;5.592;2022-07-23T01:18:32;8.20;;;6.15;;
23988;SDS011;12202;52.136;5.592;2022-07-23T01:20:58;10.27;;;6.88;;
23988;SDS011;12202;52.136;5.592;2022-07-23T01:23:24;12.15;;;6.68;;
23988;SDS011;12202;52.136;5.592;2022-07-23T01:25:53;10.98;;;6.65;;
23988;SDS011;12202;52.136;5.592;2022-07-23T01:28:19;12.52;;;6.90;;
23988;SDS011;12202;52.136;5.592;2022-07-23T01:30:45;10.13;;;6.70;;
23988;SDS011;12202;52.136;5.592;2022-07-23T01:33:11;8.43;;;6.20;;
23988;SDS011;12202;52.136;5.592;2022-07-23T01:35:37;10.60;;;6.43;;
23988;SDS011;12202;52.136;5.592;2022-07-23T01:38:03;8.38;;;6.15;;
23988;SDS011;12202;52.136;5.592;2022-07-23T01:40:29;7.30;;;5.78;;
23988;SDS011;12202;52.136;5.592;2022-07-23T01:42:55;12.30;;;7.05;;
23988;SDS011;12202;52.136;5.592;2022-07-23T01:45:21;15.65;;;6.65;;
23988;SDS011;12202;52.136;5.592;2022-07-23T01:47:47;16.55;;;7.80;;
23988;SDS011;12202;52.136;5.592;2022-07-23T01:50:13;10.30;;;6.70;;
23988;SDS011;12202;52.136;5.592;2022-07-23T01:52:39;14.57;;;7.45;;
23988;SDS011;12202;52.136;5.592;2022-07-23T01:55:06;11.25;;;6.55;;
23988;SDS011;12202;52.136;5.592;2022-07-23T01:57:32;12.02;;;6.55;;
23988;SDS011;12202;52.136;5.592;2022-07-23T01:59:58;11.90;;;7.50;;
23988;SDS011;12202;52.136;5.592;2022-07-23T02:02:24;19.17;;;7.35;;
23988;SDS011;12202;52.136;5.592;2022-07-23T02:04:50;10.45;;;7.38;;
23988;SDS011;12202;52.136;5.592;2022-07-23T02:07:16;13.00;;;7.63;;
23988;SDS011;12202;52.136;5.592;2022-07-23T02:09:42;11.65;;;7.50;;
23988;SDS011;12202;52.136;5.592;2022-07-23T02:12:08;11.75;;;7.25;;
23988;SDS011;12202;52.136;5.592;2022-07-23T02:14:34;11.32;;;7.25;;
23988;SDS011;12202;52.136;5.592;2022-07-23T02:17:00;11.32;;;7.13;;
23988;SDS011;12202;52.136;5.592;2022-07-23T02:19:26;12.07;;;7.05;;
23988;SDS011;12202;52.136;5.592;2022-07-23T02:21:52;9.07;;;7.40;;
23988;SDS011;12202;52.136;5.592;2022-07-23T02:24:19;10.48;;;7.47;;
23988;SDS011;12202;52.136;5.592;2022-07-23T02:26:45;11.30;;;7.50;;
23988;SDS011;12202;52.136;5.592;2022-07-23T02:29:11;12.20;;;7.10;;
23988;SDS011;12202;52.136;5.592;2022-07-23T02:31:37;11.70;;;8.23;;
23988;SDS011;12202;52.136;5.592;2022-07-23T02:34:03;14.07;;;7.25;;
23988;SDS011;12202;52.136;5.592;2022-07-23T02:36:30;10.38;;;7.75;;
23988;SDS011;12202;52.136;5.592;2022-07-23T02:38:56;11.90;;;7.22;;
23988;SDS011;12202;52.136;5.592;2022-07-23T02:41:23;10.15;;;7.47;;
23988;SDS011;12202;52.136;5.592;2022-07-23T02:43:49;11.27;;;7.97;;
23988;SDS011;12202;52.136;5.592;2022-07-23T02:46:15;9.60;;;6.65;;
23988;SDS011;12202;52.136;5.592;2022-07-23T02:48:41;13.35;;;7.60;;
23988;SDS011;12202;52.136;5.592;2022-07-23T02:51:07;12.57;;;7.60;;
23988;SDS011;12202;52.136;5.592;2022-07-23T02:53:33;9.85;;;6.95;;
23988;SDS011;12202;52.136;5.592;2022-07-23T02:55:59;10.98;;;7.40;;
23988;SDS011;12202;52.136;5.592;2022-07-23T02:58:25;10.35;;;7.07;;
23988;SDS011;12202;52.136;5.592;2022-07-23T03:00:52;10.05;;;7.55;;
23988;SDS011;12202;52.136;5.592;2022-07-23T03:03:18;12.30;;;7.28;;
23988;SDS011;12202;52.136;5.592;2022-07-23T03:05:44;15.48;;;7.55;;
23988;SDS011;12202;52.136;5.592;2022-07-23T03:08:10;9.77;;;7.43;;
23988;SDS011;12202;52.136;5.592;2022-07-23T03:10:36;9.77;;;7.13;;
23988;SDS011;12202;52.136;5.592;2022-07-23T03:13:08;13.77;;;7.22;;
23988;SDS011;12202;52.136;5.592;2022-07-23T03:15:34;10.20;;;6.95;;
23988;SDS011;12202;52.136;5.592;2022-07-23T03:18:00;10.07;;;7.32;;
23988;SDS011;12202;52.136;5.592;2022-07-23T03:20:26;9.52;;;7.65;;
23988;SDS011;12202;52.136;5.592;2022-07-23T03:22:52;11.90;;;7.28;;
23988;SDS011;12202;52.136;5.592;2022-07-23T03:25:18;14.88;;;8.68;;
23988;SDS011;12202;52.136;5.592;2022-07-23T03:27:44;10.63;;;7.20;;
23988;SDS011;12202;52.136;5.592;2022-07-23T03:30:10;11.63;;;7.53;;
23988;SDS011;12202;52.136;5.592;2022-07-23T03:32:37;11.55;;;6.93;;
23988;SDS011;12202;52.136;5.592;2022-07-23T03:35:03;12.23;;;7.78;;
23988;SDS011;12202;52.136;5.592;2022-07-23T03:37:29;13.77;;;8.10;;
23988;SDS011;12202;52.136;5.592;2022-07-23T03:39:55;18.17;;;8.30;;
23988;SDS011;12202;52.136;5.592;2022-07-23T03:42:22;11.10;;;7.40;;
23988;SDS011;12202;52.136;5.592;2022-07-23T03:44:48;9.90;;;7.05;;
23988;SDS011;12202;52.136;5.592;2022-07-23T03:47:14;11.27;;;7.70;;
23988;SDS011;12202;52.136;5.592;2022-07-23T03:49:42;10.75;;;8.02;;
23988;SDS011;12202;52.136;5.592;2022-07-23T03:52:08;10.35;;;7.28;;
23988;SDS011;12202;52.136;5.592;2022-07-23T03:54:34;16.75;;;8.15;;
23988;SDS011;12202;52.136;5.592;2022-07-23T03:57:00;18.98;;;9.07;;
23988;SDS011;12202;52.136;5.592;2022-07-23T03:59:26;11.35;;;8.40;;
23988;SDS011;12202;52.136;5.592;2022-07-23T04:01:52;16.23;;;8.45;;
23988;SDS011;12202;52.136;5.592;2022-07-23T04:04:18;13.02;;;7.97;;
23988;SDS011;12202;52.136;5.592;2022-07-23T04:06:44;11.00;;;8.35;;
23988;SDS011;12202;52.136;5.592;2022-07-23T04:09:10;11.93;;;8.10;;
23988;SDS011;12202;52.136;5.592;2022-07-23T04:11:36;12.38;;;7.80;;
23988;SDS011;12202;52.136;5.592;2022-07-23T04:14:02;12.45;;;7.82;;
23988;SDS011;12202;52.136;5.592;2022-07-23T04:16:28;13.00;;;8.13;;
23988;SDS011;12202;52.136;5.592;2022-07-23T04:18:56;12.30;;;7.97;;
23988;SDS011;12202;52.136;5.592;2022-07-23T04:21:22;12.23;;;7.57;;
23988;SDS011;12202;52.136;5.592;2022-07-23T04:23:48;13.90;;;7.97;;
23988;SDS011;12202;52.136;5.592;2022-07-23T04:26:14;13.13;;;8.35;;
23988;SDS011;12202;52.136;5.592;2022-07-23T04:28:40;11.63;;;7.90;;
23988;SDS011;12202;52.136;5.592;2022-07-23T04:31:06;12.85;;;7.45;;
23988;SDS011;12202;52.136;5.592;2022-07-23T04:33:33;10.93;;;7.35;;
23988;SDS011;12202;52.136;5.592;2022-07-23T04:35:59;10.93;;;8.07;;
23988;SDS011;12202;52.136;5.592;2022-07-23T04:38:24;13.18;;;8.07;;
23988;SDS011;12202;52.136;5.592;2022-07-23T04:40:50;12.00;;;7.82;;
23988;SDS011;12202;52.136;5.592;2022-07-23T04:43:16;10.90;;;7.78;;
23988;SDS011;12202;52.136;5.592;2022-07-23T04:45:42;8.88;;;6.63;;
23988;SDS011;12202;52.136;5.592;2022-07-23T04:48:08;14.10;;;7.50;;
23988;SDS011;12202;52.136;5.592;2022-07-23T04:50:34;11.93;;;7.40;;
23988;SDS011;12202;52.136;5.592;2022-07-23T04:53:00;11.50;;;8.48;;
23988;SDS011;12202;52.136;5.592;2022-07-23T04:55:26;11.60;;;7.47;;
23988;SDS011;12202;52.136;5.592;2022-07-23T04:57:52;11.90;;;8.18;;
23988;SDS011;12202;52.136;5.592;2022-07-23T05:00:18;10.30;;;7.50;;
23988;SDS011;12202;52.136;5.592;2022-07-23T05:02:44;11.48;;;7.93;;
23988;SDS011;12202;52.136;5.592;2022-07-23T05:05:10;12.85;;;7.82;;
23988;SDS011;12202;52.136;5.592;2022-07-23T05:07:36;16.23;;;8.60;;
23988;SDS011;12202;52.136;5.592;2022-07-23T05:10:02;12.45;;;8.65;;
23988;SDS011;12202;52.136;5.592;2022-07-23T05:12:28;14.25;;;8.48;;
23988;SDS011;12202;52.136;5.592;2022-07-23T05:14:54;15.57;;;9.00;;
23988;SDS011;12202;52.136;5.592;2022-07-23T05:17:20;10.75;;;7.90;;
23988;SDS011;12202;52.136;5.592;2022-07-23T05:19:46;13.60;;;8.02;;
23988;SDS011;12202;52.136;5.592;2022-07-23T05:22:12;12.32;;;7.78;;
23988;SDS011;12202;52.136;5.592;2022-07-23T05:24:38;15.77;;;8.43;;
23988;SDS011;12202;52.136;5.592;2022-07-23T05:27:04;9.82;;;7.47;;
23988;SDS011;12202;52.136;5.592;2022-07-23T05:29:30;12.45;;;7.95;;
23988;SDS011;12202;52.136;5.592;2022-07-23T05:31:56;11.15;;;7.55;;
23988;SDS011;12202;52.136;5.592;2022-07-23T05:34:22;12.50;;;8.93;;
23988;SDS011;12202;52.136;5.592;2022-07-23T05:36:48;12.85;;;7.82;;
23988;SDS011;12202;52.136;5.592;2022-07-23T05:39:14;10.48;;;6.65;;
23988;SDS011;12202;52.136;5.592;2022-07-23T05:41:41;11.18;;;7.35;;
23988;SDS011;12202;52.136;5.592;2022-07-23T05:44:07;16.38;;;9.27;;
23988;SDS011;12202;52.136;5.592;2022-07-23T05:46:33;14.50;;;8.48;;
23988;SDS011;12202;52.136;5.592;2022-07-23T05:48:59;13.13;;;7.10;;
23988;SDS011;12202;52.136;5.592;2022-07-23T05:51:25;9.77;;;7.18;;
23988;SDS011;12202;52.136;5.592;2022-07-23T05:53:51;11.48;;;7.70;;
23988;SDS011;12202;52.136;5.592;2022-07-23T05:56:17;8.48;;;6.93;;
23988;SDS011;12202;52.136;5.592;2022-07-23T05:58:44;11.02;;;6.80;;
23988;SDS011;12202;52.136;5.592;2022-07-23T06:01:13;11.95;;;7.15;;
23988;SDS011;12202;52.136;5.592;2022-07-23T06:03:39;10.10;;;7.32;;
23988;SDS011;12202;52.136;5.592;2022-07-23T06:06:05;11.73;;;6.65;;
23988;SDS011;12202;52.136;5.592;2022-07-23T06:08:31;7.65;;;5.97;;
23988;SDS011;12202;52.136;5.592;2022-07-23T06:10:58;10.40;;;6.15;;
23988;SDS011;12202;52.136;5.592;2022-07-23T06:13:24;7.18;;;5.10;;
23988;SDS011;12202;52.136;5.592;2022-07-23T06:15:50;11.25;;;5.63;;
23988;SDS011;12202;52.136;5.592;2022-07-23T06:18:16;12.35;;;6.00;;
23988;SDS011;12202;52.136;5.592;2022-07-23T06:20:41;9.43;;;5.85;;
23988;SDS011;12202;52.136;5.592;2022-07-23T06:23:07;10.65;;;6.72;;
23988;SDS011;12202;52.136;5.592;2022-07-23T06:25:33;9.00;;;5.40;;
23988;SDS011;12202;52.136;5.592;2022-07-23T06:27:59;10.23;;;6.32;;
23988;SDS011;12202;52.136;5.592;2022-07-23T06:30:25;13.68;;;5.78;;
23988;SDS011;12202;52.136;5.592;2022-07-23T06:32:51;8.25;;;5.63;;
23988;SDS011;12202;52.136;5.592;2022-07-23T06:35:17;10.98;;;5.97;;
23988;SDS011;12202;52.136;5.592;2022-07-23T06:37:43;9.70;;;5.82;;
23988;SDS011;12202;52.136;5.592;2022-07-23T06:40:11;9.77;;;6.22;;
23988;SDS011;12202;52.136;5.592;2022-07-23T06:42:38;10.45;;;5.40;;
23988;SDS011;12202;52.136;5.592;2022-07-23T06:45:05;8.88;;;5.38;;
23988;SDS011;12202;52.136;5.592;2022-07-23T06:47:31;12.02;;;6.00;;
23988;SDS011;12202;52.136;5.592;2022-07-23T06:49:57;12.35;;;5.85;;
23988;SDS011;12202;52.136;5.592;2022-07-23T06:52:24;10.45;;;5.40;;
23988;SDS011;12202;52.136;5.592;2022-07-23T06:54:51;9.30;;;5.85;;
23988;SDS011;12202;52.136;5.592;2022-07-23T06:57:17;6.68;;;4.55;;
23988;SDS011;12202;52.136;5.592;2022-07-23T06:59:42;11.10;;;5.03;;
23988;SDS011;12202;52.136;5.592;2022-07-23T07:02:09;8.77;;;4.80;;
23988;SDS011;12202;52.136;5.592;2022-07-23T07:04:35;7.28;;;4.30;;
23988;SDS011;12202;52.136;5.592;2022-07-23T07:07:01;8.90;;;5.38;;
23988;SDS011;12202;52.136;5.592;2022-07-23T07:09:27;7.50;;;4.75;;
23988;SDS011;12202;52.136;5.592;2022-07-23T07:11:53;7.45;;;4.97;;
23988;SDS011;12202;52.136;5.592;2022-07-23T07:14:19;8.82;;;4.68;;
23988;SDS011;12202;52.136;5.592;2022-07-23T07:16:45;7.20;;;4.68;;
23988;SDS011;12202;52.136;5.592;2022-07-23T07:19:11;7.25;;;4.05;;
23988;SDS011;12202;52.136;5.592;2022-07-23T07:21:37;11.20;;;4.60;;
23988;SDS011;12202;52.136;5.592;2022-07-23T07:24:04;9.18;;;3.85;;
23988;SDS011;12202;52.136;5.592;2022-07-23T07:26:30;4.95;;;3.50;;
23988;SDS011;12202;52.136;5.592;2022-07-23T07:28:56;4.95;;;3.38;;
23988;SDS011;12202;52.136;5.592;2022-07-23T07:31:22;12.70;;;5.63;;
23988;SDS011;12202;52.136;5.592;2022-07-23T07:33:48;10.80;;;4.60;;
23988;SDS011;12202;52.136;5.592;2022-07-23T07:36:14;8.32;;;3.65;;
23988;SDS011;12202;52.136;5.592;2022-07-23T07:38:40;4.15;;;3.03;;
23988;SDS011;12202;52.136;5.592;2022-07-23T07:41:06;8.05;;;2.85;;
23988;SDS011;12202;52.136;5.592;2022-07-23T07:43:34;7.90;;;3.40;;
23988;SDS011;12202;52.136;5.592;2022-07-23T07:46:00;4.43;;;3.00;;
23988;SDS011;12202;52.136;5.592;2022-07-23T07:48:26;3.47;;;2.58;;
23988;SDS011;12202;52.136;5.592;2022-07-23T07:50:52;4.30;;;2.60;;
23988;SDS011;12202;52.136;5.592;2022-07-23T07:53:18;5.53;;;3.05;;
23988;SDS011;12202;52.136;5.592;2022-07-23T07:55:46;9.50;;;4.68;;
23988;SDS011;12202;52.136;5.592;2022-07-23T07:58:12;5.10;;;4.03;;
23988;SDS011;12202;52.136;5.592;2022-07-23T08:00:38;6.15;;;4.57;;
23988;SDS011;12202;52.136;5.592;2022-07-23T08:03:04;5.60;;;3.95;;
23988;SDS011;12202;52.136;5.592;2022-07-23T08:05:30;6.70;;;4.22;;
23988;SDS011;12202;52.136;5.592;2022-07-23T08:07:57;5.35;;;4.28;;
23988;SDS011;12202;52.136;5.592;2022-07-23T08:10:23;9.32;;;4.47;;
23988;SDS011;12202;52.136;5.592;2022-07-23T08:12:51;7.97;;;4.63;;
23988;SDS011;12202;52.136;5.592;2022-07-23T08:15:18;8.40;;;4.68;;
23988;SDS011;12202;52.136;5.592;2022-07-23T08:17:45;9.10;;;3.42;;
23988;SDS011;12202;52.136;5.592;2022-07-23T08:20:11;5.22;;;3.97;;
23988;SDS011;12202;52.136;5.592;2022-07-23T08:22:51;7.80;;;3.40;;
23988;SDS011;12202;52.136;5.592;2022-07-23T08:25:21;4.72;;;2.97;;
23988;SDS011;12202;52.136;5.592;2022-07-23T08:27:47;6.47;;;3.15;;
23988;SDS011;12202;52.136;5.592;2022-07-23T08:30:14;4.07;;;3.17;;
23988;SDS011;12202;52.136;5.592;2022-07-23T08:32:52;5.28;;;3.72;;
23988;SDS011;12202;52.136;5.592;2022-07-23T08:35:21;4.38;;;3.63;;
23988;SDS011;12202;52.136;5.592;2022-07-23T08:37:47;6.70;;;3.33;;
23988;SDS011;12202;52.136;5.592;2022-07-23T08:40:13;4.22;;;2.95;;
23988;SDS011;12202;52.136;5.592;2022-07-23T08:42:39;4.82;;;2.50;;
23988;SDS011;12202;52.136;5.592;2022-07-23T08:45:07;4.78;;;2.28;;
23988;SDS011;12202;52.136;5.592;2022-07-23T08:47:33;6.40;;;2.75;;
23988;SDS011;12202;52.136;5.592;2022-07-23T08:50:00;6.63;;;2.40;;
23988;SDS011;12202;52.136;5.592;2022-07-23T08:52:27;3.70;;;2.53;;
23988;SDS011;12202;52.136;5.592;2022-07-23T08:54:53;5.28;;;2.30;;
23988;SDS011;12202;52.136;5.592;2022-07-23T08:57:20;8.48;;;2.42;;
23988;SDS011;12202;52.136;5.592;2022-07-23T08:59:46;3.33;;;2.15;;
23988;SDS011;12202;52.136;5.592;2022-07-23T09:02:12;3.92;;;2.10;;
23988;SDS011;12202;52.136;5.592;2022-07-23T09:04:38;3.47;;;2.42;;
23988;SDS011;12202;52.136;5.592;2022-07-23T09:07:05;3.28;;;1.73;;
23988;SDS011;12202;52.136;5.592;2022-07-23T09:09:32;26.50;;;9.02;;
23988;SDS011;12202;52.136;5.592;2022-07-23T09:12:03;27.65;;;5.43;;
23988;SDS011;12202;52.136;5.592;2022-07-23T09:14:36;25.83;;;7.43;;
23988;SDS011;12202;52.136;5.592;2022-07-23T09:17:09;16.15;;;6.95;;
23988;SDS011;12202;52.136;5.592;2022-07-23T09:19:35;51.80;;;16.67;;
23988;SDS011;12202;52.136;5.592;2022-07-23T09:22:17;12.75;;;3.97;;
23988;SDS011;12202;52.136;5.592;2022-07-23T09:25:02;6.15;;;2.17;;
23988;SDS011;12202;52.136;5.592;2022-07-23T09:30:13;5.45;;;2.15;;
23988;SDS011;12202;52.136;5.592;2022-07-23T09:32:39;6.38;;;2.53;;
23988;SDS011;12202;52.136;5.592;2022-07-23T09:35:06;4.38;;;2.28;;
23988;SDS011;12202;52.136;5.592;2022-07-23T09:37:32;4.28;;;1.70;;
23988;SDS011;12202;52.136;5.592;2022-07-23T09:40:06;4.47;;;1.20;;
23988;SDS011;12202;52.136;5.592;2022-07-23T09:42:32;3.00;;;1.25;;
23988;SDS011;12202;52.136;5.592;2022-07-23T09:44:58;5.20;;;1.67;;
23988;SDS011;12202;52.136;5.592;2022-07-23T09:47:26;3.55;;;1.25;;
23988;SDS011;12202;52.136;5.592;2022-07-23T09:52:26;2.78;;;1.42;;
23988;SDS011;12202;52.136;5.592;2022-07-23T09:54:57;2.67;;;1.40;;
23988;SDS011;12202;52.136;5.592;2022-07-23T09:57:24;2.72;;;1.50;;
23988;SDS011;12202;52.136;5.592;2022-07-23T09:59:51;3.15;;;1.80;;
23988;SDS011;12202;52.136;5.592;2022-07-23T10:02:17;3.03;;;1.63;;
23988;SDS011;12202;52.136;5.592;2022-07-23T10:04:43;6.60;;;2.50;;
23988;SDS011;12202;52.136;5.592;2022-07-23T10:07:09;3.53;;;1.33;;
23988;SDS011;12202;52.136;5.592;2022-07-23T10:09:37;2.53;;;1.33;;
23988;SDS011;12202;52.136;5.592;2022-07-23T10:12:04;2.03;;;1.40;;
23988;SDS011;12202;52.136;5.592;2022-07-23T10:14:46;2.22;;;1.17;;
23988;SDS011;12202;52.136;5.592;2022-07-23T10:17:12;1.67;;;1.20;;
23988;SDS011;12202;52.136;5.592;2022-07-23T10:19:38;2.22;;;1.58;;
23988;SDS011;12202;52.136;5.592;2022-07-23T10:22:08;2.35;;;1.45;;
23988;SDS011;12202;52.136;5.592;2022-07-23T10:27:04;2.45;;;1.50;;
23988;SDS011;12202;52.136;5.592;2022-07-23T10:29:54;4.88;;;1.85;;
23988;SDS011;12202;52.136;5.592;2022-07-23T10:32:26;2.78;;;1.63;;
23988;SDS011;12202;52.136;5.592;2022-07-23T10:34:55;3.47;;;1.80;;
23988;SDS011;12202;52.136;5.592;2022-07-23T10:40:18;3.22;;;1.90;;
23988;SDS011;12202;52.136;5.592;2022-07-23T10:42:42;2.90;;;1.73;;
23988;SDS011;12202;52.136;5.592;2022-07-23T10:50:39;1.45;;;1.35;;
23988;SDS011;12202;52.136;5.592;2022-07-23T10:57:57;3.28;;;1.90;;
23988;SDS011;12202;52.136;5.592;2022-07-23T11:00:27;3.35;;;1.40;;
23988;SDS011;12202;52.136;5.592;2022-07-23T11:03:04;2.95;;;1.40;;
23988;SDS011;12202;52.136;5.592;2022-07-23T11:21:40;3.55;;;1.13;;
23988;SDS011;12202;52.136;5.592;2022-07-23T11:24:09;2.40;;;1.48;;
23988;SDS011;12202;52.136;5.592;2022-07-23T11:31:58;2.83;;;1.95;;
23988;SDS011;12202;52.136;5.592;2022-07-23T11:34:34;2.35;;;1.63;;
23988;SDS011;12202;52.136;5.592;2022-07-23T11:37:01;4.22;;;1.55;;
23988;SDS011;12202;52.136;5.592;2022-07-23T11:39:28;3.40;;;1.65;;
23988;SDS011;12202;52.136;5.592;2022-07-23T11:41:55;2.67;;;1.73;;
23988;SDS011;12202;52.136;5.592;2022-07-23T11:44:28;2.33;;;1.63;;
23988;SDS011;12202;52.136;5.592;2022-07-23T11:46:55;5.90;;;1.83;;
23988;SDS011;12202;52.136;5.592;2022-07-23T11:49:21;2.40;;;1.85;;
23988;SDS011;12202;52.136;5.592;2022-07-23T11:51:47;3.03;;;1.83;;
23988;SDS011;12202;52.136;5.592;2022-07-23T11:54:28;3.08;;;1.70;;
23988;SDS011;12202;52.136;5.592;2022-07-23T11:56:57;2.90;;;1.65;;
23988;SDS011;12202;52.136;5.592;2022-07-23T11:59:24;2.38;;;1.80;;
23988;SDS011;12202;52.136;5.592;2022-07-23T12:01:58;6.65;;;2.38;;
23988;SDS011;12202;52.136;5.592;2022-07-23T12:04:25;2.40;;;2.20;;
23988;SDS011;12202;52.136;5.592;2022-07-23T12:07:02;9.02;;;2.00;;
23988;SDS011;12202;52.136;5.592;2022-07-23T12:09:28;5.05;;;1.42;;
23988;SDS011;12202;52.136;5.592;2022-07-23T12:12:00;2.83;;;1.83;;
23988;SDS011;12202;52.136;5.592;2022-07-23T12:14:26;4.38;;;2.17;;
23988;SDS011;12202;52.136;5.592;2022-07-23T12:17:10;2.30;;;1.52;;
23988;SDS011;12202;52.136;5.592;2022-07-23T12:19:36;3.22;;;2.03;;
23988;SDS011;12202;52.136;5.592;2022-07-23T12:22:02;4.22;;;1.90;;
23988;SDS011;12202;52.136;5.592;2022-07-23T12:24:29;2.72;;;1.95;;
23988;SDS011;12202;52.136;5.592;2022-07-23T12:27:10;3.63;;;1.90;;
23988;SDS011;12202;52.136;5.592;2022-07-23T12:29:37;2.22;;;1.70;;
23988;SDS011;12202;52.136;5.592;2022-07-23T12:32:16;3.65;;;2.65;;
23988;SDS011;12202;52.136;5.592;2022-07-23T12:34:44;2.05;;;1.83;;
23988;SDS011;12202;52.136;5.592;2022-07-23T12:37:30;3.00;;;1.88;;
23988;SDS011;12202;52.136;5.592;2022-07-23T12:39:56;1.75;;;1.33;;
23988;SDS011;12202;52.136;5.592;2022-07-23T12:42:23;2.03;;;1.63;;
23988;SDS011;12202;52.136;5.592;2022-07-23T12:45:09;2.60;;;2.13;;
23988;SDS011;12202;52.136;5.592;2022-07-23T12:50:32;2.67;;;2.17;;
23988;SDS011;12202;52.136;5.592;2022-07-23T12:53:02;2.90;;;2.13;;
23988;SDS011;12202;52.136;5.592;2022-07-23T12:55:28;5.85;;;2.13;;
23988;SDS011;12202;52.136;5.592;2022-07-23T12:58:02;5.57;;;2.05;;
23988;SDS011;12202;52.136;5.592;2022-07-23T13:00:29;3.58;;;1.88;;
23988;SDS011;12202;52.136;5.592;2022-07-23T13:02:55;3.45;;;2.00;;
23988;SDS011;12202;52.136;5.592;2022-07-23T13:05:21;3.40;;;2.03;;
23988;SDS011;12202;52.136;5.592;2022-07-23T13:07:47;3.78;;;1.85;;
23988;SDS011;12202;52.136;5.592;2022-07-23T13:10:13;4.55;;;1.90;;
23988;SDS011;12202;52.136;5.592;2022-07-23T13:12:39;3.38;;;2.42;;
23988;SDS011;12202;52.136;5.592;2022-07-23T13:15:05;4.45;;;2.08;;
23988;SDS011;12202;52.136;5.592;2022-07-23T13:17:31;4.63;;;2.08;;
23988;SDS011;12202;52.136;5.592;2022-07-23T13:19:57;3.45;;;1.80;;
23988;SDS011;12202;52.136;5.592;2022-07-23T13:22:23;2.45;;;2.13;;
23988;SDS011;12202;52.136;5.592;2022-07-23T13:24:49;2.72;;;2.33;;
23988;SDS011;12202;52.136;5.592;2022-07-23T13:27:15;3.95;;;2.13;;
23988;SDS011;12202;52.136;5.592;2022-07-23T13:29:41;3.83;;;2.20;;
23988;SDS011;12202;52.136;5.592;2022-07-23T13:32:07;3.33;;;2.15;;
23988;SDS011;12202;52.136;5.592;2022-07-23T13:34:33;3.95;;;1.80;;
23988;SDS011;12202;52.136;5.592;2022-07-23T13:36:59;5.55;;;2.22;;
23988;SDS011;12202;52.136;5.592;2022-07-23T13:39:25;3.88;;;1.92;;
23988;SDS011;12202;52.136;5.592;2022-07-23T13:41:51;4.88;;;1.88;;
23988;SDS011;12202;52.136;5.592;2022-07-23T13:44:17;3.20;;;2.38;;
23988;SDS011;12202;52.136;5.592;2022-07-23T13:46:44;2.30;;;1.77;;
23988;SDS011;12202;52.136;5.592;2022-07-23T13:49:10;3.97;;;2.30;;
23988;SDS011;12202;52.136;5.592;2022-07-23T13:51:36;3.22;;;2.50;;
23988;SDS011;12202;52.136;5.592;2022-07-23T13:54:02;5.03;;;2.50;;
23988;SDS011;12202;52.136;5.592;2022-07-23T13:56:28;2.35;;;2.08;;
23988;SDS011;12202;52.136;5.592;2022-07-23T13:58:54;3.10;;;1.90;;
23988;SDS011;12202;52.136;5.592;2022-07-23T14:01:20;3.47;;;2.22;;
23988;SDS011;12202;52.136;5.592;2022-07-23T14:03:46;3.47;;;1.95;;
23988;SDS011;12202;52.136;5.592;2022-07-23T14:06:12;3.30;;;2.42;;
23988;SDS011;12202;52.136;5.592;2022-07-23T14:08:38;4.35;;;2.25;;
23988;SDS011;12202;52.136;5.592;2022-07-23T14:11:04;5.47;;;2.33;;
23988;SDS011;12202;52.136;5.592;2022-07-23T14:13:30;2.42;;;2.22;;
23988;SDS011;12202;52.136;5.592;2022-07-23T14:15:56;3.75;;;2.72;;
23988;SDS011;12202;52.136;5.592;2022-07-23T14:18:22;4.20;;;2.00;;
23988;SDS011;12202;52.136;5.592;2022-07-23T14:20:48;3.97;;;1.92;;
23988;SDS011;12202;52.136;5.592;2022-07-23T14:23:14;4.78;;;2.30;;
23988;SDS011;12202;52.136;5.592;2022-07-23T14:25:40;5.70;;;1.73;;
23988;SDS011;12202;52.136;5.592;2022-07-23T14:28:06;4.97;;;2.30;;
23988;SDS011;12202;52.136;5.592;2022-07-23T14:30:32;4.93;;;2.50;;
23988;SDS011;12202;52.136;5.592;2022-07-23T14:32:58;3.75;;;2.17;;
23988;SDS011;12202;52.136;5.592;2022-07-23T14:35:24;3.95;;;2.75;;
23988;SDS011;12202;52.136;5.592;2022-07-23T14:37:50;4.55;;;2.00;;
23988;SDS011;12202;52.136;5.592;2022-07-23T14:40:16;2.92;;;2.10;;
23988;SDS011;12202;52.136;5.592;2022-07-23T14:42:42;5.03;;;2.60;;
23988;SDS011;12202;52.136;5.592;2022-07-23T14:45:08;3.13;;;2.58;;
23988;SDS011;12202;52.136;5.592;2022-07-23T14:47:34;6.50;;;2.40;;
23988;SDS011;12202;52.136;5.592;2022-07-23T14:50:01;4.32;;;2.47;;
23988;SDS011;12202;52.136;5.592;2022-07-23T14:52:27;4.32;;;2.00;;
23988;SDS011;12202;52.136;5.592;2022-07-23T14:54:53;5.45;;;2.35;;
23988;SDS011;12202;52.136;5.592;2022-07-23T14:57:19;4.20;;;2.22;;
23988;SDS011;12202;52.136;5.592;2022-07-23T14:59:45;7.85;;;2.72;;
23988;SDS011;12202;52.136;5.592;2022-07-23T15:02:11;3.85;;;2.42;;
23988;SDS011;12202;52.136;5.592;2022-07-23T15:04:36;5.55;;;2.47;;
23988;SDS011;12202;52.136;5.592;2022-07-23T15:07:02;5.72;;;2.92;;
23988;SDS011;12202;52.136;5.592;2022-07-23T15:09:28;6.07;;;3.17;;
23988;SDS011;12202;52.136;5.592;2022-07-23T15:11:54;7.60;;;3.20;;
23988;SDS011;12202;52.136;5.592;2022-07-23T15:14:20;3.25;;;2.72;;
23988;SDS011;12202;52.136;5.592;2022-07-23T15:16:47;4.88;;;2.70;;
23988;SDS011;12202;52.136;5.592;2022-07-23T15:19:13;6.28;;;3.45;;
23988;SDS011;12202;52.136;5.592;2022-07-23T15:21:39;6.20;;;2.47;;
23988;SDS011;12202;52.136;5.592;2022-07-23T15:24:05;4.60;;;2.75;;
23988;SDS011;12202;52.136;5.592;2022-07-23T15:26:32;3.83;;;2.25;;
23988;SDS011;12202;52.136;5.592;2022-07-23T15:28:59;4.18;;;2.08;;